Time;durP1;ratioP1;P1;durP2;ratioP2;P2;SDS_P1;SDS_P2;PMS_P1;PMS_P2;Temp;Humidity;BMP_temperature;BMP_pressure;BME280_temperature;BME280_humidity;BME280_pressure;Samples;Min_cycle;Max_cycle;Signal;HPM_P1;HPM_P2
2023/10/06 00:01:47;;;;;;;;;;;;;;;16.03;58.40;101547.22;6174053;23;6842;-76
2023/10/06 00:04:15;;;;;;;;;;;;;;;16.03;58.34;101531.72;6174569;23;6858;-74
2023/10/06 00:06:43;;;;;;;;;;;;;;;16.04;58.49;101541.28;6151049;23;6774;-77
2023/10/06 00:09:09;;;;;;;;;;;;;;;16.04;58.81;101539.56;6151805;23;6775;-76
2023/10/06 00:11:40;;;;;;;;;;;;;;;16.06;58.80;101544.81;6150994;23;7017;-77
2023/10/06 00:14:08;;;;;;;;;;;;;;;16.06;58.37;101543.09;6122963;23;6953;-74
2023/10/06 00:16:40;;;;;;;;;;;;;;;16.08;58.84;101543.16;6172049;23;6774;-77
2023/10/06 00:19:27;;;;;;;;;;;;;;;16.08;58.62;101540.56;6172926;23;6787;-75
2023/10/06 00:24:37;;;;;;;;;;;;;;;16.09;58.86;101547.53;6177126;23;6774;-75
2023/10/06 00:27:03;;;;;;;;;;;;;;;16.12;58.49;101546.78;6146161;23;7231;-76
2023/10/06 00:29:29;;;;;;;;;;;;;;;16.12;58.40;101544.19;6146096;23;6910;-76
2023/10/06 00:32:21;;;;;;;;;;;;;;;16.13;58.73;101539.09;6145388;23;6972;-77
2023/10/06 00:34:48;;;;;;;;;;;;;;;16.14;58.50;101540.84;6127326;23;7244;-76
2023/10/06 00:37:22;;;;;;;;;;;;;;;16.13;58.48;101541.69;6149506;23;6775;-77
2023/10/06 00:39:54;;;;;;;;;;;;;;;16.13;58.25;101546.84;6170825;23;7190;-77
2023/10/06 00:42:21;;;;;;;;;;;;;;;16.14;58.49;101543.44;6147794;23;6770;-77
2023/10/06 00:44:47;;;;;;;;;;;;;;;16.15;58.81;101546.91;6173458;23;6775;-76
2023/10/06 00:47:14;;;;;;;;;;;;;;;16.15;58.26;101544.31;6145523;23;6822;-76
2023/10/06 00:49:43;;;;;;;;;;;;;;;16.16;58.05;101540.91;6172517;23;6786;-75
2023/10/06 00:52:11;;;;;;;;;;;;;;;16.14;58.38;101543.44;6144916;23;7013;-77
2023/10/06 00:54:44;;;;;;;;;;;;;;;16.14;58.19;101540.84;6148890;23;6917;-75
2023/10/06 00:57:18;;;;;;;;;;;;;;;16.13;57.94;101544.25;6171255;23;7216;-77
2023/10/06 00:59:44;;;;;;;;;;;;;;;16.13;58.33;101546.84;6149506;23;6940;-76
2023/10/06 01:02:11;;;;;;;;;;;;;;;16.13;58.07;101540.78;6171285;23;6758;-76
2023/10/06 01:04:45;;;;;;;;;;;;;;;16.12;58.15;101545.06;6172517;23;6938;-77
2023/10/06 01:07:13;;;;;;;;;;;;;;;16.12;58.01;101542.47;6148478;23;6782;-73
2023/10/06 01:10:06;;;;;;;;;;;;;;;16.10;58.29;101536.34;6148995;23;6779;-77
2023/10/06 01:12:32;;;;;;;;;;;;;;;16.10;58.21;101531.19;6170546;23;6782;-77
2023/10/06 01:15:18;;;;;;;;;;;;;;;16.06;57.89;101519.81;6147211;23;6775;-76
2023/10/06 01:17:45;;;;;;;;;;;;;;;16.03;57.98;101524.88;6149049;23;6771;-76
2023/10/06 01:20:55;;;;;;;;;;;;;;;16.01;57.83;101518.75;6171387;23;6943;-77
2023/10/06 01:23:04;;;;;;;;;;;;;;;15.99;58.21;101517.81;6163835;23;6779;-76
2023/10/06 01:25:34;;;;;;;;;;;;;;;15.95;58.22;101515.88;6148487;23;6779;-77
2023/10/06 01:28:03;;;;;;;;;;;;;;;15.94;58.27;101512.44;6174413;23;6778;-77
2023/10/06 01:30:29;;;;;;;;;;;;;;;15.91;58.33;101504.53;6170241;23;6956;-77
2023/10/06 01:32:58;;;;;;;;;;;;;;;15.90;58.06;101501.84;6147213;23;6762;-76
2023/10/06 01:35:23;;;;;;;;;;;;;;;15.86;58.22;101507.69;6148240;23;7824;-76
2023/10/06 01:38:00;;;;;;;;;;;;;;;15.83;58.59;101503.25;6170886;23;6755;-77
2023/10/06 01:42:56;;;;;;;;;;;;;;;15.77;58.16;101500.44;6147529;23;6766;-75
2023/10/06 01:45:22;;;;;;;;;;;;;;;15.77;58.47;101503.00;6149805;23;6961;-75
2023/10/06 01:47:56;;;;;;;;;;;;;;;15.75;58.41;101494.31;6149021;23;6951;-77
2023/10/06 01:50:28;;;;;;;;;;;;;;;15.73;58.53;101499.41;6147757;23;6980;-76
2023/10/06 01:52:58;;;;;;;;;;;;;;;15.72;58.79;101489.88;6168743;23;6871;-76
2023/10/06 01:55:24;;;;;;;;;;;;;;;15.73;59.01;101495.91;6146758;23;6766;-73
2023/10/06 01:57:54;;;;;;;;;;;;;;;15.74;58.64;101496.00;6171858;23;7264;-77
2023/10/06 02:00:31;;;;;;;;;;;;;;;15.74;58.30;101495.09;6150048;23;7013;-76
2023/10/06 02:02:56;;;;;;;;;;;;;;;15.73;58.80;101499.41;6167600;23;6911;-75
2023/10/06 02:05:22;;;;;;;;;;;;;;;15.74;58.62;101500.28;6171391;23;6762;-73
2023/10/06 02:07:48;;;;;;;;;;;;;;;15.75;58.52;101504.66;6174455;23;6820;-75
2023/10/06 02:10:15;;;;;;;;;;;;;;;15.75;58.70;101499.47;6174664;23;6838;-73
2023/10/06 02:12:45;;;;;;;;;;;;;;;15.76;58.70;101493.50;6174969;23;6783;-75
2023/10/06 02:15:11;;;;;;;;;;;;;;;15.76;58.91;101494.34;6152204;23;6783;-75
2023/10/06 02:17:38;;;;;;;;;;;;;;;15.78;58.47;101489.28;6176134;23;6902;-75
2023/10/06 02:22:50;;;;;;;;;;;;;;;15.76;58.83;101488.31;6179028;23;6773;-75
2023/10/06 02:25:15;;;;;;;;;;;;;;;15.74;58.82;101480.50;6184747;23;6913;-76
2023/10/06 02:27:46;;;;;;;;;;;;;;;15.75;58.66;101483.97;6152436;23;6746;-74
2023/10/06 02:30:15;;;;;;;;;;;;;;;15.72;58.86;101483.81;6179160;23;6778;-75
2023/10/06 02:32:43;;;;;;;;;;;;;;;15.72;58.53;101481.22;6156907;23;7214;-74
2023/10/06 02:35:10;;;;;;;;;;;;;;;15.69;58.75;101474.22;6159444;23;6958;-77
2023/10/06 02:37:35;;;;;;;;;;;;;;;15.68;58.88;101486.28;6182354;23;6925;-74
2023/10/06 02:40:10;;;;;;;;;;;;;;;15.68;58.28;101477.63;6160517;23;6893;-76
2023/10/06 02:42:43;;;;;;;;;;;;;;;15.67;58.50;101479.34;6180945;23;6783;-74
2023/10/06 02:45:16;;;;;;;;;;;;;;;15.66;58.75;101481.84;6157896;23;7002;-75
2023/10/06 02:47:42;;;;;;;;;;;;;;;15.65;58.35;101488.72;6181963;23;6975;-76
2023/10/06 02:50:12;;;;;;;;;;;;;;;15.63;58.63;101482.59;6174256;23;7360;-76
2023/10/06 02:52:42;;;;;;;;;;;;;;;15.62;58.38;101485.13;6151476;23;7062;-76
2023/10/06 02:55:09;;;;;;;;;;;;;;;15.59;58.67;101475.53;6150504;23;7241;-76
2023/10/06 02:57:35;;;;;;;;;;;;;;;15.59;58.62;101480.69;6174159;23;6915;-76
2023/10/06 03:02:58;;;;;;;;;;;;;;;15.60;59.13;101477.28;6168988;23;11491;-74
2023/10/06 03:05:38;;;;;;;;;;;;;;;15.62;58.82;101477.38;6147647;23;6985;-74
2023/10/06 03:08:11;;;;;;;;;;;;;;;15.62;58.69;101486.00;6171792;23;6982;-74
2023/10/06 03:10:44;;;;;;;;;;;;;;;15.62;58.80;101486.00;6172977;23;7038;-74
2023/10/06 03:13:13;;;;;;;;;;;;;;;15.61;58.66;101489.41;6169069;23;7387;-74
2023/10/06 03:15:45;;;;;;;;;;;;;;;15.61;58.91;101488.53;6147534;23;6975;-75
2023/10/06 03:18:16;;;;;;;;;;;;;;;15.61;58.81;101494.56;6167232;23;6920;-75
2023/10/06 03:20:49;;;;;;;;;;;;;;;15.61;58.68;101493.69;6169245;23;7814;-75
2023/10/06 03:25:56;;;;;;;;;;;;;;;15.60;59.37;101497.97;6180828;23;6766;-74
2023/10/06 03:28:26;;;;;;;;;;;;;;;15.57;58.79;101495.25;6171130;23;7325;-74
2023/10/06 03:30:52;;;;;;;;;;;;;;;15.55;58.53;101499.47;6147915;23;6977;-74
2023/10/06 03:33:19;;;;;;;;;;;;;;;15.53;58.26;101501.09;6143748;23;6946;-74
2023/10/06 03:35:45;;;;;;;;;;;;;;;15.52;58.84;101499.31;6147791;23;6878;-76
2023/10/06 03:38:35;;;;;;;;;;;;;;;15.49;58.52;101499.19;6170316;23;6969;-75
2023/10/06 03:41:46;;;;;;;;;;;;;;;15.47;59.31;101491.34;6165042;23;6779;-74
2023/10/06 03:43:50;;;;;;;;;;;;;;;15.47;59.05;101485.31;6154655;23;6996;-75
2023/10/06 03:46:19;;;;;;;;;;;;;;;15.47;58.96;101482.75;6143972;23;7220;-75
2023/10/06 03:48:49;;;;;;;;;;;;;;;15.46;58.68;101487.00;6145280;23;7010;-75
2023/10/06 03:51:17;;;;;;;;;;;;;;;15.45;58.88;101484.34;6167161;23;6779;-74
2023/10/06 03:53:45;;;;;;;;;;;;;;;15.45;59.01;101481.75;6168519;23;7079;-75
2023/10/06 03:56:16;;;;;;;;;;;;;;;15.43;59.08;101483.41;6141211;23;6803;-75
2023/10/06 03:58:44;;;;;;;;;;;;;;;15.43;59.07;101485.97;6144611;23;6949;-74
2023/10/06 04:01:17;;;;;;;;;;;;;;;15.43;58.75;101485.97;6142537;23;7007;-74
2023/10/06 04:03:43;;;;;;;;;;;;;;;15.41;58.62;101486.81;6169667;23;6957;-75
2023/10/06 04:06:12;;;;;;;;;;;;;;;15.42;59.18;101485.13;6168042;23;6858;-75
2023/10/06 04:08:44;;;;;;;;;;;;;;;15.40;58.95;101484.13;6146280;23;6998;-74
2023/10/06 04:11:14;;;;;;;;;;;;;;;15.40;58.68;101486.72;6174046;23;7030;-76
2023/10/06 04:13:41;;;;;;;;;;;;;;;15.37;58.72;101484.91;6174244;23;6774;-75
2023/10/06 04:16:07;;;;;;;;;;;;;;;15.36;59.11;101483.13;6151720;23;6834;-77
2023/10/06 04:18:33;;;;;;;;;;;;;;;15.37;58.99;101489.16;6174495;23;7152;-76
2023/10/06 04:20:59;;;;;;;;;;;;;;;15.34;58.85;101482.16;6174339;23;6960;-76
2023/10/06 04:23:25;;;;;;;;;;;;;;;15.35;59.24;101480.47;6150475;23;6965;-76
2023/10/06 04:25:55;;;;;;;;;;;;;;;15.34;59.06;101470.97;6175249;23;6970;-76
2023/10/06 04:28:24;;;;;;;;;;;;;;;15.33;58.96;101462.31;6150063;23;7035;-75
2023/10/06 04:30:50;;;;;;;;;;;;;;;15.33;59.24;101477.81;6148453;23;6771;-76
2023/10/06 04:33:18;;;;;;;;;;;;;;;15.33;58.99;101472.66;6173185;23;6758;-77
2023/10/06 04:35:52;;;;;;;;;;;;;;;15.32;59.16;101460.56;6175089;23;6846;-74
2023/10/06 04:38:19;;;;;;;;;;;;;;;15.32;59.07;101449.34;6149893;23;6839;-77
2023/10/06 04:40:46;;;;;;;;;;;;;;;15.33;59.17;101451.97;6174650;23;6778;-75
2023/10/06 04:43:17;;;;;;;;;;;;;;;15.35;59.64;101445.19;6173296;23;6778;-75
2023/10/06 04:45:50;;;;;;;;;;;;;;;15.36;59.31;101444.41;6173948;23;6802;-75
2023/10/06 04:48:18;;;;;;;;;;;;;;;15.38;59.46;101436.69;6148819;23;6982;-78
2023/10/06 04:50:51;;;;;;;;;;;;;;;15.42;59.33;101430.88;6129353;23;6977;-79
2023/10/06 04:53:17;;;;;;;;;;;;;;;15.41;59.48;101431.69;6124109;23;6783;-79
2023/10/06 04:55:43;;;;;;;;;;;;;;;15.45;59.71;101440.44;6122186;23;6866;-78
2023/10/06 04:58:14;;;;;;;;;;;;;;;15.48;59.66;101446.63;6120689;23;6763;-76
2023/10/06 05:00:47;;;;;;;;;;;;;;;15.50;59.53;101449.28;6098633;23;7054;-78
2023/10/06 05:03:13;;;;;;;;;;;;;;;15.49;58.83;101450.09;6097857;23;6958;-78
2023/10/06 05:05:40;;;;;;;;;;;;;;;15.47;58.71;101450.03;6121610;23;6771;-78
2023/10/06 05:08:09;;;;;;;;;;;;;;;15.45;58.42;101451.66;6122653;23;6984;-79
2023/10/06 05:10:39;;;;;;;;;;;;;;;15.44;59.13;101459.31;6122184;23;6926;-76
2023/10/06 05:13:06;;;;;;;;;;;;;;;15.41;58.87;101455.81;6122591;23;6771;-77
2023/10/06 05:15:36;;;;;;;;;;;;;;;15.40;58.83;101459.19;6124172;23;6914;-78
2023/10/06 05:18:04;;;;;;;;;;;;;;;15.40;58.61;101466.94;6120806;23;6962;-78
2023/10/06 05:20:33;;;;;;;;;;;;;;;15.38;58.74;101460.84;6122434;23;6778;-74
2023/10/06 05:23:14;;;;;;;;;;;;;;;15.36;58.97;101449.56;6115374;23;6766;-74
2023/10/06 05:25:47;;;;;;;;;;;;;;;15.33;58.77;101448.53;6116691;23;7158;-73
2023/10/06 05:28:16;;;;;;;;;;;;;;;15.29;58.82;101447.50;6092545;23;6966;-74
2023/10/06 05:30:44;;;;;;;;;;;;;;;15.26;58.86;101447.38;6116092;23;6779;-74
2023/10/06 05:33:10;;;;;;;;;;;;;;;15.24;59.29;101444.72;6116808;23;6775;-74
2023/10/06 05:35:42;;;;;;;;;;;;;;;15.25;59.04;101445.59;6116717;23;6771;-74
2023/10/06 05:38:13;;;;;;;;;;;;;;;15.25;59.33;101438.72;6116242;23;7033;-74
2023/10/06 05:40:43;;;;;;;;;;;;;;;15.29;59.96;101434.59;6115827;23;7044;-74
2023/10/06 05:43:11;;;;;;;;;;;;;;;15.34;59.21;101443.41;6139969;23;7238;-74
2023/10/06 05:45:43;;;;;;;;;;;;;;;15.38;59.20;101440.19;6119744;23;7005;-74
2023/10/06 05:48:12;;;;;;;;;;;;;;;15.43;60.01;101442.06;6118346;23;6779;-74
2023/10/06 05:50:41;;;;;;;;;;;;;;;15.49;59.57;101442.34;6135879;23;7009;-74
2023/10/06 05:53:19;;;;;;;;;;;;;;;15.52;59.21;101439.91;6173010;23;6965;-74
2023/10/06 05:55:49;;;;;;;;;;;;;;;15.56;59.30;101439.22;6149923;23;6782;-74
2023/10/06 05:58:18;;;;;;;;;;;;;;;15.58;59.10;101441.84;6147497;23;6956;-74
2023/10/06 06:01:00;;;;;;;;;;;;;;;15.59;59.37;101443.63;6143207;23;6968;-74
2023/10/06 06:03:26;;;;;;;;;;;;;;;15.59;58.85;101441.94;6167602;23;7080;-74
2023/10/06 06:05:53;;;;;;;;;;;;;;;15.62;59.06;101451.53;6146094;23;7181;-74
2023/10/06 06:08:20;;;;;;;;;;;;;;;15.62;59.04;101454.97;6146602;23;8215;-74
2023/10/06 06:10:46;;;;;;;;;;;;;;;15.65;59.20;101449.06;6147502;23;6972;-74
2023/10/06 06:13:16;;;;;;;;;;;;;;;15.67;59.34;101456.09;6144859;23;6838;-74
2023/10/06 06:15:42;;;;;;;;;;;;;;;15.69;58.98;101457.03;6145848;23;6950;-74
2023/10/06 06:18:08;;;;;;;;;;;;;;;15.74;59.03;101458.91;6171440;23;6822;-74
2023/10/06 06:20:41;;;;;;;;;;;;;;;15.77;59.40;101461.66;6146375;23;7239;-74
2023/10/06 06:23:12;;;;;;;;;;;;;;;15.81;59.21;101456.69;6146663;23;7249;-74
2023/10/06 06:25:39;;;;;;;;;;;;;;;15.86;58.85;101453.41;6145690;23;6775;-74
2023/10/06 06:28:07;;;;;;;;;;;;;;;15.90;58.95;101457.91;6145755;23;7308;-75
2023/10/06 06:30:37;;;;;;;;;;;;;;;15.94;59.19;101460.72;6148557;23;6766;-73
2023/10/06 06:33:08;;;;;;;;;;;;;;;15.99;58.89;101467.78;6148861;23;6975;-74
2023/10/06 06:35:35;;;;;;;;;;;;;;;16.06;59.03;101467.22;6148884;23;7262;-73
2023/10/06 06:38:04;;;;;;;;;;;;;;;16.12;58.82;101477.81;6173894;23;6972;-74
2023/10/06 06:40:37;;;;;;;;;;;;;;;16.20;58.76;101479.03;6149561;23;6775;-73
2023/10/06 06:43:09;;;;;;;;;;;;;;;16.28;59.09;101476.78;6113430;23;6770;-73
2023/10/06 06:45:39;;;;;;;;;;;;;;;16.36;59.37;101477.97;6119628;23;6834;-74
2023/10/06 06:48:12;;;;;;;;;;;;;;;16.47;58.72;101472.38;6118629;23;6787;-73
2023/10/06 06:50:43;;;;;;;;;;;;;;;16.57;59.11;101474.50;6120074;23;6839;-72
2023/10/06 06:53:09;;;;;;;;;;;;;;;16.66;58.88;101474.88;6119767;23;6935;-72
2023/10/06 06:55:35;;;;;;;;;;;;;;;16.76;58.54;101470.94;6118999;23;6783;-72
2023/10/06 06:58:06;;;;;;;;;;;;;;;16.87;58.45;101479.13;6118729;23;6774;-72
2023/10/06 07:00:35;;;;;;;;;;;;;;;16.98;58.55;101470.91;6122815;23;7080;-73
2023/10/06 07:03:01;;;;;;;;;;;;;;;17.08;58.72;101466.16;6148904;23;7159;-71
2023/10/06 07:05:28;;;;;;;;;;;;;;;17.22;58.18;101478.75;6098981;23;6985;-73
2023/10/06 07:07:54;;;;;;;;;;;;;;;17.34;58.00;101478.34;6122573;23;7151;-72
2023/10/06 07:10:25;;;;;;;;;;;;;;;17.46;57.75;101477.91;6118146;23;6755;-73
2023/10/06 07:12:51;;;;;;;;;;;;;;;17.59;58.12;101474.94;6122716;23;6771;-72
2023/10/06 07:15:19;;;;;;;;;;;;;;;17.72;57.48;101473.69;6146498;23;6775;-72
2023/10/06 07:17:49;;;;;;;;;;;;;;;17.85;57.29;101471.53;6122727;23;6854;-71
2023/10/06 07:20:16;;;;;;;;;;;;;;;17.97;57.22;101476.25;6096788;23;7116;-72
2023/10/06 07:22:46;;;;;;;;;;;;;;;18.08;56.86;101474.94;6148197;23;6839;-72
2023/10/06 07:25:16;;;;;;;;;;;;;;;18.15;56.56;101470.84;6121461;23;6831;-72
2023/10/06 07:27:48;;;;;;;;;;;;;;;18.24;56.27;101465.06;6122128;23;6966;-72
2023/10/06 07:30:15;;;;;;;;;;;;;;;18.28;55.73;101466.94;6120917;23;6868;-71
2023/10/06 07:32:43;;;;;;;;;;;;;;;18.30;55.18;101465.28;6147498;23;6947;-72
2023/10/06 07:35:17;;;;;;;;;;;;;;;18.31;55.26;101467.94;6121648;23;7201;-74
2023/10/06 07:37:45;;;;;;;;;;;;;;;18.31;55.01;101469.63;6146175;23;7049;-72
2023/10/06 07:40:13;;;;;;;;;;;;;;;18.31;54.79;101470.53;6121387;23;6834;-71
2023/10/06 07:42:49;;;;;;;;;;;;;;;18.31;54.80;101472.22;6137987;23;6783;-72
2023/10/06 07:45:17;;;;;;;;;;;;;;;18.32;54.65;101472.28;6146373;23;6845;-72
2023/10/06 07:47:44;;;;;;;;;;;;;;;18.33;54.80;101470.56;6148477;23;6958;-74
2023/10/06 07:50:13;;;;;;;;;;;;;;;18.35;54.55;101468.91;6146463;23;7245;-73
2023/10/06 07:52:43;;;;;;;;;;;;;;;18.37;54.64;101462.06;6122084;23;6965;-73
2023/10/06 07:55:11;;;;;;;;;;;;;;;18.39;54.00;101467.28;6119028;23;7032;-74
2023/10/06 07:57:42;;;;;;;;;;;;;;;18.39;54.26;101459.50;6145553;23;6782;-73
2023/10/06 08:00:10;;;;;;;;;;;;;;;18.43;54.52;101458.78;6147163;23;6963;-71
2023/10/06 08:02:39;;;;;;;;;;;;;;;18.46;54.05;101466.66;6147383;23;6866;-72
2023/10/06 08:05:13;;;;;;;;;;;;;;;18.47;54.40;101465.81;6147656;23;6782;-72
2023/10/06 08:07:42;;;;;;;;;;;;;;;18.51;54.49;101453.81;6146742;23;7185;-72
2023/10/06 08:10:13;;;;;;;;;;;;;;;18.54;54.46;101460.00;6145078;23;6983;-73
2023/10/06 08:12:40;;;;;;;;;;;;;;;18.58;54.40;101455.78;6147578;23;6958;-72
2023/10/06 08:15:09;;;;;;;;;;;;;;;18.63;53.83;101463.72;6122151;23;7136;-73
2023/10/06 08:17:38;;;;;;;;;;;;;;;18.68;54.58;101457.84;6148239;23;7212;-72
2023/10/06 08:20:08;;;;;;;;;;;;;;;18.76;53.55;101454.63;6123037;23;7213;-73
2023/10/06 08:22:34;;;;;;;;;;;;;;;18.82;54.42;101455.69;6147551;23;6845;-72
2023/10/06 08:25:05;;;;;;;;;;;;;;;18.91;54.20;101462.88;6121998;23;7017;-72
2023/10/06 08:27:35;;;;;;;;;;;;;;;18.99;53.99;101453.59;6147074;23;7002;-72
2023/10/06 08:30:07;;;;;;;;;;;;;;;19.09;54.20;101453.91;6145815;23;6971;-74
2023/10/06 08:32:33;;;;;;;;;;;;;;;19.19;53.71;101450.72;6146532;23;6946;-72
2023/10/06 08:34:58;;;;;;;;;;;;;;;19.28;53.57;101453.59;6146918;23;6766;-71
2023/10/06 08:37:24;;;;;;;;;;;;;;;19.38;53.45;101456.47;6146191;23;6762;-72
2023/10/06 08:39:50;;;;;;;;;;;;;;;19.47;53.17;101451.53;6146978;23;6818;-72
2023/10/06 08:42:15;;;;;;;;;;;;;;;19.56;52.94;101456.97;6146668;23;7362;-72
2023/10/06 08:44:41;;;;;;;;;;;;;;;19.65;53.17;101458.06;6146598;23;6767;-71
2023/10/06 08:47:14;;;;;;;;;;;;;;;19.73;52.73;101458.28;6135322;23;6863;-74
2023/10/06 08:49:41;;;;;;;;;;;;;;;19.79;52.83;101446.31;6121892;23;6894;-72
2023/10/06 08:52:12;;;;;;;;;;;;;;;19.87;52.22;101448.25;6152823;23;6985;-78
2023/10/06 08:54:39;;;;;;;;;;;;;;;19.93;52.13;101451.00;6152447;23;6782;-79
2023/10/06 08:57:05;;;;;;;;;;;;;;;20.00;52.30;101450.38;6130168;23;6981;-78
2023/10/06 08:59:34;;;;;;;;;;;;;;;20.07;51.96;101448.81;6154202;23;6802;-80
2023/10/06 09:02:01;;;;;;;;;;;;;;;20.15;52.01;101456.78;6151169;23;6782;-78
2023/10/06 09:04:38;;;;;;;;;;;;;;;20.25;51.84;101453.56;6127962;23;6958;-79
2023/10/06 09:07:12;;;;;;;;;;;;;;;20.34;51.96;101448.59;6153945;23;6775;-77
2023/10/06 09:09:43;;;;;;;;;;;;;;;20.42;51.63;101451.38;6153116;23;7043;-77
2023/10/06 09:12:26;;;;;;;;;;;;;;;20.52;51.45;101457.69;6152150;23;6778;-76
2023/10/06 09:14:56;;;;;;;;;;;;;;;20.59;51.42;101462.22;6153366;23;6937;-80
2023/10/06 09:17:35;;;;;;;;;;;;;;;20.66;50.90;101469.31;6158637;23;6837;-80
2023/10/06 09:20:00;;;;;;;;;;;;;;;20.74;50.77;101466.00;6159604;23;6846;-80
2023/10/06 09:22:30;;;;;;;;;;;;;;;20.82;50.85;101467.09;6158506;23;6830;-75
2023/10/06 09:25:00;;;;;;;;;;;;;;;20.91;50.75;101461.22;6134684;23;6973;-77
2023/10/06 09:27:26;;;;;;;;;;;;;;;20.99;50.10;101461.38;6157134;23;6915;-76
2023/10/06 09:30:00;;;;;;;;;;;;;;;21.09;50.04;101466.81;6157126;23;6846;-76
2023/10/06 09:32:26;;;;;;;;;;;;;;;21.20;50.14;101464.44;6155381;23;6782;-79
2023/10/06 09:34:53;;;;;;;;;;;;;;;21.31;49.84;101458.56;6158183;23;7199;-78
2023/10/06 09:37:23;;;;;;;;;;;;;;;21.42;49.83;101459.66;6180343;23;6961;-79
2023/10/06 09:40:10;;;;;;;;;;;;;;;21.56;49.40;101464.28;6132896;23;6971;-79
2023/10/06 09:42:36;;;;;;;;;;;;;;;21.65;49.10;101457.50;6152211;23;6775;-75
2023/10/06 09:45:08;;;;;;;;;;;;;;;21.74;49.00;101449.03;6128997;23;7228;-79
2023/10/06 09:47:38;;;;;;;;;;;;;;;21.81;48.77;101449.13;6156313;23;6787;-79
2023/10/06 09:50:06;;;;;;;;;;;;;;;21.87;48.62;101446.63;6155967;23;6847;-78
2023/10/06 09:52:39;;;;;;;;;;;;;;;21.92;48.22;101444.97;6155023;23;6790;-80
2023/10/06 09:55:06;;;;;;;;;;;;;;;21.98;48.39;101442.47;6128371;23;6957;-79
2023/10/06 09:57:33;;;;;;;;;;;;;;;22.06;48.50;101440.88;6130665;23;7050;-78
2023/10/06 10:00:00;;;;;;;;;;;;;;;22.17;48.13;101433.22;6156042;23;6821;-79
2023/10/06 10:02:29;;;;;;;;;;;;;;;22.33;48.05;101436.97;6153534;23;7132;-78
2023/10/06 10:05:02;;;;;;;;;;;;;;;22.58;48.48;101433.88;6156408;23;6842;-77
2023/10/06 10:07:28;;;;;;;;;;;;;;;23.15;48.24;101432.00;6157811;23;6783;-78
2023/10/06 10:09:57;;;;;;;;;;;;;;;23.95;46.38;101423.28;6156807;23;6843;-74
2023/10/06 10:12:53;;;;;;;;;;;;;;;24.69;45.36;101435.16;6158897;23;6850;-78
2023/10/06 10:15:37;;;;;;;;;;;;;;;25.37;44.20;101426.75;6159941;23;7189;-76
2023/10/06 10:18:29;;;;;;;;;;;;;;;25.93;43.43;101422.47;6163836;23;6767;-78
2023/10/06 10:20:59;;;;;;;;;;;;;;;26.30;42.79;101418.13;6162852;23;6986;-76
2023/10/06 10:23:29;;;;;;;;;;;;;;;26.68;41.84;101413.63;6162000;23;6820;-77
2023/10/06 10:26:16;;;;;;;;;;;;;;;27.34;41.43;101411.63;6137670;23;7006;-75
2023/10/06 10:28:43;;;;;;;;;;;;;;;28.01;40.26;101401.50;6134911;23;7253;-78
2023/10/06 10:31:17;;;;;;;;;;;;;;;28.53;39.65;101410.66;6172314;23;6779;-78
2023/10/06 10:33:46;;;;;;;;;;;;;;;28.85;38.57;101403.28;6189947;23;7055;-77
2023/10/06 10:36:16;;;;;;;;;;;;;;;29.16;37.97;101405.50;6168826;23;6767;-78
2023/10/06 10:38:42;;;;;;;;;;;;;;;29.64;37.84;101403.97;6193004;23;6847;-79
2023/10/06 10:41:10;;;;;;;;;;;;;;;30.07;36.54;101376.84;6166362;23;6755;-77
2023/10/06 10:43:37;;;;;;;;;;;;;;;30.27;35.90;101387.94;6168353;23;6827;-78
2023/10/06 10:46:08;;;;;;;;;;;;;;;29.85;36.23;101386.03;6161754;23;8460;-75
2023/10/06 10:48:37;;;;;;;;;;;;;;;29.14;36.09;101401.19;6166956;23;6775;-74
2023/10/06 10:51:13;;;;;;;;;;;;;;;28.43;36.99;101398.47;6163421;23;6782;-77
2023/10/06 10:53:45;;;;;;;;;;;;;;;27.92;37.56;101383.16;6163005;23;6775;-77
2023/10/06 10:56:13;;;;;;;;;;;;;;;27.59;38.22;101392.19;6138406;23;6973;-77
2023/10/06 10:58:42;;;;;;;;;;;;;;;27.43;38.26;101391.38;6162990;23;6934;-76
2023/10/06 11:01:37;;;;;;;;;;;;;;;27.28;38.48;101381.84;6187134;23;6766;-78
2023/10/06 11:04:18;;;;;;;;;;;;;;;26.95;38.19;101383.78;6163646;23;7018;-78
2023/10/06 11:06:48;;;;;;;;;;;;;;;26.60;38.50;101376.88;6188471;23;6901;-75
2023/10/06 11:09:29;;;;;;;;;;;;;;;26.34;39.15;101383.06;6162301;23;6775;-75
2023/10/06 11:12:00;;;;;;;;;;;;;;;26.24;39.47;101383.97;6165554;23;6786;-76
2023/10/06 11:14:29;;;;;;;;;;;;;;;26.18;39.72;101393.59;6164736;23;7019;-77
2023/10/06 11:17:02;;;;;;;;;;;;;;;26.11;39.39;101386.59;6164984;23;6782;-77
2023/10/06 11:19:33;;;;;;;;;;;;;;;26.09;39.59;101393.59;6164493;23;6982;-78
2023/10/06 11:22:13;;;;;;;;;;;;;;;26.09;39.40;101390.97;6139227;23;7202;-78
2023/10/06 11:24:41;;;;;;;;;;;;;;;26.28;39.98;101386.56;6167823;23;6902;-77
2023/10/06 11:27:23;;;;;;;;;;;;;;;27.05;39.47;101384.59;6167459;23;7001;-76
2023/10/06 11:29:54;;;;;;;;;;;;;;;27.92;38.36;101373.47;6192811;23;6783;-74
2023/10/06 11:32:21;;;;;;;;;;;;;;;28.45;37.16;101372.09;6168581;23;7347;-74
2023/10/06 11:34:49;;;;;;;;;;;;;;;28.80;36.53;101379.56;6166605;23;6906;-75
2023/10/06 11:37:18;;;;;;;;;;;;;;;29.22;35.71;101372.91;6192760;23;6790;-77
2023/10/06 11:39:45;;;;;;;;;;;;;;;29.50;35.15;101365.47;6169825;23;6960;-77
2023/10/06 11:42:23;;;;;;;;;;;;;;;29.80;34.98;101363.19;6172333;23;6952;-73
2023/10/06 11:44:52;;;;;;;;;;;;;;;30.18;34.75;101354.63;6163171;23;6939;-75
2023/10/06 11:47:21;;;;;;;;;;;;;;;30.49;34.52;101352.25;6193674;23;6778;-74
2023/10/06 11:50:02;;;;;;;;;;;;;;;30.72;33.64;101348.28;6192688;23;6948;-78
2023/10/06 11:52:29;;;;;;;;;;;;;;;30.85;33.23;101343.59;6190948;23;6955;-77
2023/10/06 11:54:57;;;;;;;;;;;;;;;30.88;32.96;101345.31;6193976;23;6778;-78
2023/10/06 11:57:46;;;;;;;;;;;;;;;30.90;32.74;101347.03;6168646;23;6779;-77
2023/10/06 12:00:19;;;;;;;;;;;;;;;30.92;32.67;101349.59;6170193;23;6775;-74
2023/10/06 12:02:51;;;;;;;;;;;;;;;30.92;32.75;101348.75;6115613;23;11577;-75
2023/10/06 12:05:18;;;;;;;;;;;;;;;30.94;32.47;101339.84;6165711;23;7181;-77
2023/10/06 12:07:47;;;;;;;;;;;;;;;30.99;32.11;101337.09;6140350;23;6794;-75
2023/10/06 12:10:17;;;;;;;;;;;;;;;30.86;32.39;101334.75;6136492;23;7131;-76
2023/10/06 12:12:45;;;;;;;;;;;;;;;30.37;32.50;101341.06;6113042;23;7075;-75
2023/10/06 12:15:15;;;;;;;;;;;;;;;29.59;33.27;101331.88;6114108;23;6942;-77
2023/10/06 12:17:42;;;;;;;;;;;;;;;28.76;33.60;101340.97;6125718;23;6976;-75
2023/10/06 12:20:18;;;;;;;;;;;;;;;28.08;34.52;101345.22;6158707;23;6958;-76
2023/10/06 12:22:46;;;;;;;;;;;;;;;27.51;35.04;101329.91;6147203;23;6766;-72
2023/10/06 12:25:16;;;;;;;;;;;;;;;27.06;35.85;101332.88;6148056;23;6823;-74
2023/10/06 12:27:45;;;;;;;;;;;;;;;26.68;35.70;101338.28;6144974;23;6956;-74
2023/10/06 12:30:12;;;;;;;;;;;;;;;26.37;36.45;101337.50;6146105;23;6798;-74
2023/10/06 12:32:37;;;;;;;;;;;;;;;26.12;36.54;101335.78;6146447;23;6779;-72
2023/10/06 12:35:08;;;;;;;;;;;;;;;25.92;37.19;101341.97;6147836;23;6805;-74
2023/10/06 12:37:40;;;;;;;;;;;;;;;25.72;37.55;101328.81;6147687;23;6770;-72
2023/10/06 12:40:11;;;;;;;;;;;;;;;25.56;37.64;101325.34;6149343;23;6774;-73
2023/10/06 12:42:38;;;;;;;;;;;;;;;25.38;37.79;101326.19;6124494;23;6962;-72
2023/10/06 12:45:13;;;;;;;;;;;;;;;25.16;37.82;101327.88;6122994;23;6885;-71
2023/10/06 12:47:40;;;;;;;;;;;;;;;24.97;37.83;101327.84;6125258;23;6975;-72
2023/10/06 12:50:08;;;;;;;;;;;;;;;24.79;38.52;101318.19;6173611;23;6774;-72
2023/10/06 12:52:37;;;;;;;;;;;;;;;24.68;38.48;101325.97;6147273;23;6804;-72
2023/10/06 12:55:15;;;;;;;;;;;;;;;24.57;39.30;101319.81;6123347;23;7240;-72
2023/10/06 12:57:41;;;;;;;;;;;;;;;24.46;39.58;101318.03;6125384;23;6970;-72
2023/10/06 13:00:11;;;;;;;;;;;;;;;24.43;39.67;101314.50;6148215;23;6767;-73
2023/10/06 13:02:37;;;;;;;;;;;;;;;24.39;39.89;101316.22;6147104;23;6937;-73
2023/10/06 13:05:16;;;;;;;;;;;;;;;24.37;40.03;101320.59;6148524;23;6771;-73
2023/10/06 13:07:46;;;;;;;;;;;;;;;24.34;39.51;101310.09;6148612;23;6889;-73
2023/10/06 13:10:15;;;;;;;;;;;;;;;24.31;39.85;101316.19;6123123;23;6962;-72
2023/10/06 13:12:43;;;;;;;;;;;;;;;24.30;40.00;101321.41;6148703;23;6906;-72
2023/10/06 13:15:14;;;;;;;;;;;;;;;24.29;39.81;101317.03;6148957;23;6775;-72
2023/10/06 13:17:41;;;;;;;;;;;;;;;24.25;39.84;101317.03;6101266;23;6969;-73